Drewsey, Oregon
Current Conditions -  °F | °C
As of 3:53 PM on Monday 20 Oct 2014 (Local Time) from KBNO Reporting Station
Few Clouds Few Clouds  
Wind Chill: 70°   Ceiling: Unl
Heat Index: 70°   Visibility: 10mi
Dew Point: 27°   Wind: 8mph
Humidity: 20%   Direction: 200°SSW
Pressure: 29.79"   Gusts: NA
Location:  43.81°N, 118.38°W
Report Text: KBNO 202253Z AUTO 20007KT 10SM FEW100 21/M03 A2979 RMK AO2 SLP078 T02111028
Loading
Personal Weather Stations






























Interactive Weather Map
Tropical Storm Tracking
New forecast layout! Learn more

10-Day Weather Forecast

Advertisements
Track Severe Weather on mobile